Time;durP1;ratioP1;P1;durP2;ratioP2;P2;SDS_P1;SDS_P2;PMS_P1;PMS_P2;Temp;Humidity;BMP_temperature;BMP_pressure;BME280_temperature;BME280_humidity;BME280_pressure;Samples;Min_cycle;Max_cycle;Signal;HPM_P1;HPM_P2
2024/02/07 00:01:50;;;;;;;2.20;1.50;;;;;;;;;;5029947;28;20134;-61
2024/02/07 00:04:20;;;;;;;4.40;2.03;;;;;;;;;;5028617;28;20456;-62
2024/02/07 00:06:48;;;;;;;3.75;1.63;;;;;;;;;;5025124;28;20049;-62
2024/02/07 00:09:17;;;;;;;3.70;2.20;;;;;;;;;;5029753;28;20132;-61
2024/02/07 00:11:46;;;;;;;2.55;1.77;;;;;;;;;;5028845;28;20084;-60
2024/02/07 00:14:15;;;;;;;2.67;1.60;;;;;;;;;;5024528;28;20498;-60
2024/02/07 00:16:43;;;;;;;5.93;2.05;;;;;;;;;;5028321;28;20057;-60
2024/02/07 00:19:11;;;;;;;3.45;2.53;;;;;;;;;;5029043;28;20054;-64
2024/02/07 00:21:41;;;;;;;3.88;1.67;;;;;;;;;;5030406;28;20045;-62
2024/02/07 00:24:10;;;;;;;1.92;1.55;;;;;;;;;;5030599;28;20562;-62
2024/02/07 00:26:38;;;;;;;2.55;1.98;;;;;;;;;;5030363;28;20045;-62
2024/02/07 00:29:07;;;;;;;2.58;1.80;;;;;;;;;;5030605;28;20081;-63
2024/02/07 00:31:35;;;;;;;2.78;1.85;;;;;;;;;;5028829;28;20481;-62
2024/02/07 00:34:03;;;;;;;3.78;1.77;;;;;;;;;;5030462;28;20131;-62
2024/02/07 00:36:32;;;;;;;4.85;1.73;;;;;;;;;;5028776;28;20488;-62
2024/02/07 00:39:02;;;;;;;5.18;2.00;;;;;;;;;;5029979;28;20131;-61
2024/02/07 00:41:30;;;;;;;3.33;2.05;;;;;;;;;;5024471;28;20049;-61
2024/02/07 00:43:58;;;;;;;3.53;2.13;;;;;;;;;;5029402;28;20111;-62
2024/02/07 00:46:27;;;;;;;2.10;1.70;;;;;;;;;;5029719;28;20084;-63
2024/02/07 00:48:55;;;;;;;3.67;2.03;;;;;;;;;;5028148;28;20520;-63
2024/02/07 00:51:24;;;;;;;2.15;1.75;;;;;;;;;;5030468;28;20061;-62
2024/02/07 00:53:52;;;;;;;3.97;1.75;;;;;;;;;;5029319;28;20049;-62
2024/02/07 00:56:22;;;;;;;3.35;1.92;;;;;;;;;;5030468;28;20099;-62
2024/02/07 00:58:51;;;;;;;2.70;1.77;;;;;;;;;;5029487;28;20053;-62
2024/02/07 01:01:20;;;;;;;3.25;2.35;;;;;;;;;;5029626;28;20056;-63
2024/02/07 01:03:48;;;;;;;3.90;1.83;;;;;;;;;;5027298;28;20049;-62
2024/02/07 01:06:17;;;;;;;2.13;1.50;;;;;;;;;;5030735;28;20049;-62
2024/02/07 01:08:45;;;;;;;2.67;1.98;;;;;;;;;;5029335;28;20144;-64
2024/02/07 01:11:14;;;;;;;3.05;1.90;;;;;;;;;;5028683;28;20104;-67
2024/02/07 01:13:45;;;;;;;2.55;1.80;;;;;;;;;;5035669;28;20556;-63
2024/02/07 01:16:13;;;;;;;3.13;1.73;;;;;;;;;;5029124;28;20060;-61
2024/02/07 01:18:42;;;;;;;2.92;1.55;;;;;;;;;;5029758;28;20168;-61
2024/02/07 01:21:10;;;;;;;5.10;2.00;;;;;;;;;;5028550;28;20060;-62
2024/02/07 01:23:39;;;;;;;2.58;2.03;;;;;;;;;;5028258;28;20052;-63
2024/02/07 01:26:08;;;;;;;2.58;1.63;;;;;;;;;;5028698;28;20128;-61
2024/02/07 01:28:36;;;;;;;5.25;2.42;;;;;;;;;;5029368;28;20037;-60
2024/02/07 01:31:06;;;;;;;2.20;1.50;;;;;;;;;;5028599;28;20418;-61
2024/02/07 01:33:35;;;;;;;2.30;1.80;;;;;;;;;;5030339;28;20418;-63
2024/02/07 01:36:03;;;;;;;4.35;1.95;;;;;;;;;;5029233;28;20532;-63
2024/02/07 01:38:32;;;;;;;3.72;2.40;;;;;;;;;;5028276;28;20132;-63
2024/02/07 01:41:02;;;;;;;3.35;1.95;;;;;;;;;;5027667;28;20512;-61
2024/02/07 01:43:33;;;;;;;2.05;1.83;;;;;;;;;;5034434;28;20099;-63
2024/02/07 01:46:02;;;;;;;2.78;2.03;;;;;;;;;;5029864;28;20057;-62
2024/02/07 01:48:33;;;;;;;4.95;2.00;;;;;;;;;;5028269;28;20495;-62
2024/02/07 01:51:01;;;;;;;3.42;1.85;;;;;;;;;;5028203;28;20104;-63
2024/02/07 01:53:33;;;;;;;2.38;1.95;;;;;;;;;;5033160;28;20072;-62
2024/02/07 01:56:02;;;;;;;5.95;2.17;;;;;;;;;;5029734;28;20458;-62
2024/02/07 01:58:31;;;;;;;2.53;1.90;;;;;;;;;;5028209;28;20191;-62
2024/02/07 02:01:00;;;;;;;2.58;2.00;;;;;;;;;;5027471;28;20132;-61
2024/02/07 02:03:29;;;;;;;3.28;2.17;;;;;;;;;;5027062;28;20513;-63
2024/02/07 02:06:00;;;;;;;2.08;1.88;;;;;;;;;;5028527;28;20495;-62
2024/02/07 02:08:29;;;;;;;3.40;1.80;;;;;;;;;;5025934;28;20053;-62
2024/02/07 02:11:00;;;;;;;3.28;2.03;;;;;;;;;;5025628;28;20452;-62
2024/02/07 02:13:29;;;;;;;3.78;2.17;;;;;;;;;;5027721;28;20041;-62
2024/02/07 02:15:58;;;;;;;3.08;2.10;;;;;;;;;;5028268;28;20042;-61
2024/02/07 02:18:26;;;;;;;2.45;1.85;;;;;;;;;;5028113;28;20053;-62
2024/02/07 02:20:55;;;;;;;3.65;1.92;;;;;;;;;;5032179;28;20045;-62
2024/02/07 02:23:35;;;;;;;2.92;1.70;;;;;;;;;;5023104;28;20483;-62
2024/02/07 02:26:13;;;;;;;4.50;2.13;;;;;;;;;;5028167;28;20037;-62
2024/02/07 02:28:52;;;;;;;2.88;1.70;;;;;;;;;;5023558;28;20041;-61
2024/02/07 02:31:23;;;;;;;2.90;1.73;;;;;;;;;;5025277;28;20053;-62
2024/02/07 02:33:53;;;;;;;2.42;1.80;;;;;;;;;;5029699;28;20394;-63
2024/02/07 02:36:22;;;;;;;4.53;1.80;;;;;;;;;;5026217;28;20063;-62
2024/02/07 02:38:52;;;;;;;4.13;1.88;;;;;;;;;;5026744;28;20057;-61
2024/02/07 02:41:22;;;;;;;4.57;1.75;;;;;;;;;;5024199;28;20076;-60
2024/02/07 02:43:52;;;;;;;2.17;1.60;;;;;;;;;;5025441;28;20046;-61
2024/02/07 02:46:20;;;;;;;3.22;1.50;;;;;;;;;;5027417;28;20453;-62
2024/02/07 02:48:50;;;;;;;2.00;1.50;;;;;;;;;;5026910;28;20550;-62
2024/02/07 02:51:19;;;;;;;2.58;1.75;;;;;;;;;;5027751;28;20041;-61
2024/02/07 02:53:47;;;;;;;4.70;1.70;;;;;;;;;;5027951;28;20057;-61
2024/02/07 02:56:16;;;;;;;3.35;1.65;;;;;;;;;;5023727;28;20052;-61
2024/02/07 02:58:44;;;;;;;2.53;1.48;;;;;;;;;;5028122;28;20050;-62
2024/02/07 03:01:13;;;;;;;2.33;1.65;;;;;;;;;;5029031;28;20052;-63
2024/02/07 03:03:53;;;;;;;4.10;1.77;;;;;;;;;;5027191;28;20045;-61
2024/02/07 03:06:29;;;;;;;2.65;1.60;;;;;;;;;;5028661;28;20057;-60
2024/02/07 03:09:07;;;;;;;1.60;1.50;;;;;;;;;;5027120;28;20132;-62
2024/02/07 03:11:37;;;;;;;2.90;1.40;;;;;;;;;;5024846;28;20071;-61
2024/02/07 03:14:06;;;;;;;3.00;1.50;;;;;;;;;;5029798;28;20053;-60
2024/02/07 03:16:35;;;;;;;1.92;1.50;;;;;;;;;;5031879;28;20468;-61
2024/02/07 03:19:04;;;;;;;2.60;1.42;;;;;;;;;;5031274;28;20415;-61
2024/02/07 03:21:34;;;;;;;1.98;1.50;;;;;;;;;;5032257;28;20119;-62
2024/02/07 03:24:02;;;;;;;2.80;1.70;;;;;;;;;;5031368;28;20054;-63
2024/02/07 03:26:31;;;;;;;4.47;1.85;;;;;;;;;;5029921;28;20127;-61
2024/02/07 03:28:59;;;;;;;2.47;1.70;;;;;;;;;;5024209;28;20054;-63
2024/02/07 03:31:28;;;;;;;2.95;2.10;;;;;;;;;;5029914;28;20135;-63
2024/02/07 03:33:56;;;;;;;2.67;1.50;;;;;;;;;;5031408;28;20138;-63
2024/02/07 03:36:26;;;;;;;3.03;1.70;;;;;;;;;;5019410;28;20044;-62
2024/02/07 03:38:58;;;;;;;3.97;1.25;;;;;;;;;;5030154;28;20125;-61
2024/02/07 03:41:27;;;;;;;1.42;1.20;;;;;;;;;;5030941;28;20058;-61
2024/02/07 03:43:58;;;;;;;2.97;1.70;;;;;;;;;;5026958;28;20124;-62
2024/02/07 03:46:27;;;;;;;1.83;1.40;;;;;;;;;;5031108;28;20047;-62
2024/02/07 03:48:55;;;;;;;3.33;1.60;;;;;;;;;;5023968;28;20060;-63
2024/02/07 03:51:27;;;;;;;1.92;1.35;;;;;;;;;;5031417;28;20638;-65
2024/02/07 03:53:59;;;;;;;2.63;1.40;;;;;;;;;;5031564;28;20093;-63
2024/02/07 03:56:28;;;;;;;1.70;1.25;;;;;;;;;;5032827;28;20054;-62
2024/02/07 03:58:57;;;;;;;2.60;1.35;;;;;;;;;;5029721;28;20053;-62
2024/02/07 04:01:27;;;;;;;1.90;1.45;;;;;;;;;;5030802;28;20053;-62
2024/02/07 04:03:57;;;;;;;3.40;2.00;;;;;;;;;;5030286;28;20426;-61
2024/02/07 04:06:28;;;;;;;2.35;1.30;;;;;;;;;;5031384;28;20053;-61
2024/02/07 04:08:58;;;;;;;2.05;1.20;;;;;;;;;;5029408;28;20466;-62
2024/02/07 05:17:17;;;;;;;5.75;2.83;;;;;;;;;;5027101;28;20049;-65
2024/02/07 05:19:46;;;;;;;2.42;1.38;;;;;;;;;;5024876;28;20584;-62
2024/02/07 05:22:16;;;;;;;2.42;1.33;;;;;;;;;;5029576;28;20077;-63
2024/02/07 05:24:45;;;;;;;4.25;2.00;;;;;;;;;;5033170;28;20080;-61
2024/02/07 05:27:14;;;;;;;3.08;1.60;;;;;;;;;;5027107;28;20490;-62
2024/02/07 05:29:44;;;;;;;1.33;1.23;;;;;;;;;;5031181;28;20072;-64
2024/02/07 05:32:12;;;;;;;3.55;2.10;;;;;;;;;;5030714;28;20063;-62
2024/02/07 05:34:41;;;;;;;5.63;2.13;;;;;;;;;;5028442;28;20044;-62
2024/02/07 05:37:09;;;;;;;5.15;1.40;;;;;;;;;;5027240;28;20053;-61
2024/02/07 05:39:39;;;;;;;3.33;1.50;;;;;;;;;;5023358;28;20049;-62
2024/02/07 05:42:08;;;;;;;5.80;1.70;;;;;;;;;;5029989;28;20497;-64
2024/02/07 05:44:36;;;;;;;3.50;1.50;;;;;;;;;;5028727;28;20045;-62
2024/02/07 05:47:06;;;;;;;2.33;1.70;;;;;;;;;;5025811;28;20168;-65
2024/02/07 05:49:34;;;;;;;3.85;1.30;;;;;;;;;;5025848;28;20049;-61
2024/02/07 05:52:03;;;;;;;4.47;1.50;;;;;;;;;;5025530;28;20511;-62
2024/02/07 05:54:33;;;;;;;1.50;1.30;;;;;;;;;;5026091;28;20406;-61
2024/02/07 05:57:01;;;;;;;2.55;1.45;;;;;;;;;;5025927;28;20049;-62
2024/02/07 05:59:29;;;;;;;4.60;1.88;;;;;;;;;;5025694;28;20099;-64
2024/02/07 06:01:58;;;;;;;3.65;1.77;;;;;;;;;;5025608;28;20122;-64
2024/02/07 06:04:28;;;;;;;2.67;1.00;;;;;;;;;;5028509;28;20053;-64
2024/02/07 06:06:56;;;;;;;2.95;1.55;;;;;;;;;;5026708;28;20068;-62
2024/02/07 06:09:25;;;;;;;3.65;1.58;;;;;;;;;;5026251;28;20502;-62
2024/02/07 06:11:53;;;;;;;4.65;1.13;;;;;;;;;;5027692;28;20100;-62
2024/02/07 06:14:22;;;;;;;1.55;1.42;;;;;;;;;;5031904;28;20553;-63
2024/02/07 06:16:50;;;;;;;2.00;1.42;;;;;;;;;;5027980;28;20100;-62
2024/02/07 06:19:19;;;;;;;2.70;1.42;;;;;;;;;;5024581;28;20059;-61
2024/02/07 06:21:51;;;;;;;2.97;1.30;;;;;;;;;;5027988;28;20091;-63
2024/02/07 06:24:19;;;;;;;1.73;1.17;;;;;;;;;;5024841;28;20115;-63
2024/02/07 06:26:47;;;;;;;2.45;1.33;;;;;;;;;;5023983;28;20041;-63
2024/02/07 06:29:16;;;;;;;2.90;1.13;;;;;;;;;;5023970;28;20050;-64
2024/02/07 06:31:44;;;;;;;1.63;1.23;;;;;;;;;;5021185;28;20048;-65
2024/02/07 06:34:13;;;;;;;3.20;1.55;;;;;;;;;;5027382;28;20057;-64
2024/02/07 06:36:42;;;;;;;2.53;1.15;;;;;;;;;;5022903;28;20042;-62
2024/02/07 06:39:12;;;;;;;5.20;1.55;;;;;;;;;;5026763;28;20107;-62
2024/02/07 06:41:40;;;;;;;3.22;1.40;;;;;;;;;;5027207;28;20107;-64
2024/02/07 06:44:08;;;;;;;3.72;1.63;;;;;;;;;;5028564;28;20060;-63
2024/02/07 06:46:42;;;;;;;2.15;1.10;;;;;;;;;;5023145;28;20049;-63
2024/02/07 06:49:10;;;;;;;3.40;1.38;;;;;;;;;;5031141;28;20477;-65
2024/02/07 06:51:39;;;;;;;1.90;1.08;;;;;;;;;;5032640;28;20549;-63
2024/02/07 06:54:07;;;;;;;4.47;1.10;;;;;;;;;;5028844;28;20045;-60
2024/02/07 06:56:37;;;;;;;2.05;1.40;;;;;;;;;;5033088;28;20046;-60
2024/02/07 06:59:06;;;;;;;2.13;1.30;;;;;;;;;;5031404;28;20037;-62
2024/02/07 07:01:34;;;;;;;2.72;1.35;;;;;;;;;;5031358;28;20076;-62
2024/02/07 07:04:03;;;;;;;2.90;1.10;;;;;;;;;;5031933;28;20045;-60
2024/02/07 07:06:31;;;;;;;2.08;1.10;;;;;;;;;;5032407;28;20107;-62
2024/02/07 07:09:00;;;;;;;2.47;1.45;;;;;;;;;;5031463;28;20474;-61
2024/02/07 07:11:28;;;;;;;2.22;1.20;;;;;;;;;;5023193;28;20050;-61
2024/02/07 07:13:58;;;;;;;2.55;1.17;;;;;;;;;;5029455;28;20104;-61
2024/02/07 07:16:30;;;;;;;1.08;0.93;;;;;;;;;;5031502;28;20052;-61
2024/02/07 07:18:59;;;;;;;3.10;1.55;;;;;;;;;;5032133;28;20045;-61
2024/02/07 07:21:28;;;;;;;1.60;1.02;;;;;;;;;;5031700;28;20053;-62
2024/02/07 07:23:56;;;;;;;5.15;1.08;;;;;;;;;;5031632;28;20106;-61
2024/02/07 07:26:25;;;;;;;5.45;1.15;;;;;;;;;;5033712;28;20046;-60
2024/02/07 07:28:54;;;;;;;1.55;1.13;;;;;;;;;;5031368;28;20560;-60
2024/02/07 07:31:24;;;;;;;5.70;1.23;;;;;;;;;;5035766;28;20506;-61
2024/02/07 07:33:54;;;;;;;2.55;1.10;;;;;;;;;;5031972;28;20386;-61
2024/02/07 07:36:26;;;;;;;4.63;1.20;;;;;;;;;;5031445;28;20073;-60
2024/02/07 07:38:55;;;;;;;1.75;1.20;;;;;;;;;;5030825;28;20080;-62
2024/02/07 07:41:24;;;;;;;2.80;0.98;;;;;;;;;;5027304;28;20073;-60
2024/02/07 07:43:52;;;;;;;2.95;1.08;;;;;;;;;;5027860;28;20100;-61
2024/02/07 07:46:21;;;;;;;1.40;0.93;;;;;;;;;;5021686;28;20470;-62
2024/02/07 07:48:51;;;;;;;1.95;1.02;;;;;;;;;;5030696;28;20037;-61
2024/02/07 07:51:20;;;;;;;3.97;1.42;;;;;;;;;;5035048;28;20060;-61
2024/02/07 07:53:49;;;;;;;3.83;1.20;;;;;;;;;;5030536;28;20050;-63
2024/02/07 07:56:18;;;;;;;4.38;1.05;;;;;;;;;;5031158;28;20053;-61
2024/02/07 07:58:48;;;;;;;2.15;1.20;;;;;;;;;;5026156;28;20513;-60
2024/02/07 08:01:22;;;;;;;2.97;1.02;;;;;;;;;;5029474;28;20056;-62
2024/02/07 08:03:53;;;;;;;3.35;1.10;;;;;;;;;;5026955;28;20062;-62
2024/02/07 08:06:22;;;;;;;1.95;1.10;;;;;;;;;;5030564;28;20091;-63
2024/02/07 08:08:51;;;;;;;1.42;0.98;;;;;;;;;;5029848;28;20116;-61
2024/02/07 08:11:19;;;;;;;5.28;1.20;;;;;;;;;;5029578;28;20161;-61
2024/02/07 08:13:48;;;;;;;2.15;1.15;;;;;;;;;;5031637;28;20053;-65
2024/02/07 08:16:16;;;;;;;3.40;1.23;;;;;;;;;;5026631;28;20058;-64
2024/02/07 08:18:45;;;;;;;2.20;0.80;;;;;;;;;;5030961;28;20115;-60
2024/02/07 08:21:15;;;;;;;1.48;0.90;;;;;;;;;;5031017;28;20049;-61
2024/02/07 08:23:43;;;;;;;1.75;1.08;;;;;;;;;;5029979;28;20374;-65
2024/02/07 08:26:12;;;;;;;2.50;0.90;;;;;;;;;;5030482;28;20115;-63
2024/02/07 08:28:40;;;;;;;1.13;1.00;;;;;;;;;;5029426;28;20180;-61
2024/02/07 08:31:11;;;;;;;1.58;0.77;;;;;;;;;;5032319;28;20081;-62
2024/02/07 08:33:40;;;;;;;3.17;1.17;;;;;;;;;;5028826;28;20098;-62
2024/02/07 08:36:09;;;;;;;1.20;0.80;;;;;;;;;;5030393;28;20057;-64
2024/02/07 08:38:41;;;;;;;2.03;1.10;;;;;;;;;;5028993;28;20443;-63
2024/02/07 08:41:09;;;;;;;3.20;1.17;;;;;;;;;;5030000;28;20061;-60
2024/02/07 08:43:37;;;;;;;3.17;1.48;;;;;;;;;;5030183;28;20067;-60
2024/02/07 08:46:06;;;;;;;4.80;1.02;;;;;;;;;;5030772;28;20050;-61
2024/02/07 08:48:34;;;;;;;2.03;1.00;;;;;;;;;;5030266;28;20122;-61
2024/02/07 08:51:04;;;;;;;1.83;1.20;;;;;;;;;;5026596;28;20494;-62
2024/02/07 08:53:32;;;;;;;4.10;1.00;;;;;;;;;;5023340;28;20381;-62
2024/02/07 08:56:02;;;;;;;2.42;0.90;;;;;;;;;;5030934;28;20283;-61
2024/02/07 08:58:30;;;;;;;3.55;1.00;;;;;;;;;;5030260;28;20370;-61
2024/02/07 09:01:03;;;;;;;1.52;1.20;;;;;;;;;;5029548;28;20049;-59
2024/02/07 09:03:32;;;;;;;2.55;1.08;;;;;;;;;;5025999;28;20053;-61
2024/02/07 09:06:00;;;;;;;1.27;0.93;;;;;;;;;;5028661;28;20494;-63
2024/02/07 09:08:29;;;;;;;2.17;1.10;;;;;;;;;;5029438;28;20049;-61
2024/02/07 09:10:58;;;;;;;1.60;0.98;;;;;;;;;;5029065;28;20045;-60
2024/02/07 09:13:28;;;;;;;1.42;0.88;;;;;;;;;;5029946;28;20049;-60
2024/02/07 09:15:57;;;;;;;1.10;0.90;;;;;;;;;;5028557;28;20417;-63
2024/02/07 09:18:27;;;;;;;1.50;1.20;;;;;;;;;;5028029;28;20566;-63
2024/02/07 09:20:56;;;;;;;1.77;0.90;;;;;;;;;;5029292;28;20478;-63
2024/02/07 09:23:24;;;;;;;1.40;0.90;;;;;;;;;;5028968;28;20118;-62
2024/02/07 09:25:52;;;;;;;4.38;1.08;;;;;;;;;;5029934;28;20091;-63
2024/02/07 09:28:21;;;;;;;1.70;0.80;;;;;;;;;;5029355;28;20135;-64
2024/02/07 09:30:51;;;;;;;3.65;1.17;;;;;;;;;;5028760;28;20088;-62
2024/02/07 09:33:19;;;;;;;1.20;1.08;;;;;;;;;;5026172;28;20099;-60
2024/02/07 09:35:48;;;;;;;1.17;1.00;;;;;;;;;;5029887;28;20104;-60
2024/02/07 09:38:21;;;;;;;2.92;1.13;;;;;;;;;;5025744;28;20049;-61
2024/02/07 09:40:50;;;;;;;2.67;1.00;;;;;;;;;;5031440;28;20065;-62
2024/02/07 09:43:19;;;;;;;1.00;0.90;;;;;;;;;;5028317;28;20041;-62
2024/02/07 09:45:49;;;;;;;0.43;0.43;;;;;;;;;;5025601;28;20049;-59
2024/02/07 09:48:21;;;;;;;1.30;0.90;;;;;;;;;;5028646;28;20045;-58
2024/02/07 09:50:51;;;;;;;2.65;1.10;;;;;;;;;;5028735;28;20046;-59
2024/02/07 09:53:21;;;;;;;3.85;1.00;;;;;;;;;;5023551;28;20073;-60
2024/02/07 09:55:50;;;;;;;1.50;0.98;;;;;;;;;;5019477;28;20068;-59
2024/02/07 09:58:19;;;;;;;3.75;0.95;;;;;;;;;;5031555;28;20057;-59
2024/02/07 10:00:47;;;;;;;4.80;1.10;;;;;;;;;;5037990;28;20414;-61
2024/02/07 10:03:17;;;;;;;2.50;1.00;;;;;;;;;;5026625;28;20133;-60
2024/02/07 10:05:50;;;;;;;2.13;1.08;;;;;;;;;;5027397;28;20049;-59
2024/02/07 10:08:19;;;;;;;3.13;1.10;;;;;;;;;;5025587;28;20786;-60
2024/02/07 10:10:48;;;;;;;1.35;0.90;;;;;;;;;;5024882;28;20057;-59
2024/02/07 10:13:17;;;;;;;5.18;1.10;;;;;;;;;;5027348;28;20057;-59
2024/02/07 10:15:46;;;;;;;2.70;0.90;;;;;;;;;;5028473;28;20117;-60
2024/02/07 10:18:14;;;;;;;3.55;1.00;;;;;;;;;;5028411;28;20057;-60
2024/02/07 10:20:53;;;;;;;1.17;0.73;;;;;;;;;;5028510;28;20053;-60
2024/02/07 10:23:22;;;;;;;0.90;0.70;;;;;;;;;;5030854;28;20045;-59
2024/02/07 10:25:51;;;;;;;1.23;0.90;;;;;;;;;;5026579;28;20077;-60
2024/02/07 10:28:20;;;;;;;2.42;0.80;;;;;;;;;;5027591;28;20037;-60
2024/02/07 10:30:57;;;;;;;1.23;0.88;;;;;;;;;;5020571;28;20049;-59
2024/02/07 10:33:26;;;;;;;1.30;0.77;;;;;;;;;;5020986;28;20038;-59
2024/02/07 10:36:05;;;;;;;2.63;0.70;;;;;;;;;;5026066;28;20048;-59
2024/02/07 10:38:35;;;;;;;3.42;0.70;;;;;;;;;;5022189;28;20077;-59
2024/02/07 10:41:03;;;;;;;1.02;0.80;;;;;;;;;;5026912;28;20046;-61
2024/02/07 10:43:33;;;;;;;1.40;0.85;;;;;;;;;;5026262;28;20103;-58
2024/02/07 10:46:02;;;;;;;1.20;0.60;;;;;;;;;;5027451;28;20050;-59
2024/02/07 10:48:33;;;;;;;4.10;1.65;;;;;;;;;;5027659;28;20075;-59
2024/02/07 10:51:03;;;;;;;1.48;0.80;;;;;;;;;;5016163;28;20151;-60
2024/02/07 10:53:33;;;;;;;3.75;1.00;;;;;;;;;;5024520;28;20478;-61
2024/02/07 10:56:04;;;;;;;1.27;0.68;;;;;;;;;;5017183;28;20068;-57
2024/02/07 10:58:33;;;;;;;3.80;0.93;;;;;;;;;;5025308;28;20483;-59
2024/02/07 11:01:01;;;;;;;2.38;0.93;;;;;;;;;;5027300;28;20060;-60
2024/02/07 11:03:30;;;;;;;1.48;0.95;;;;;;;;;;5028291;28;20065;-60
2024/02/07 11:05:59;;;;;;;1.58;0.80;;;;;;;;;;5024251;28;20081;-61
2024/02/07 11:08:28;;;;;;;0.90;0.70;;;;;;;;;;5024066;28;20049;-60
2024/02/07 11:10:59;;;;;;;0.82;0.70;;;;;;;;;;5020510;28;20042;-59
2024/02/07 11:13:28;;;;;;;3.42;0.70;;;;;;;;;;5021255;28;20054;-60
2024/02/07 11:15:57;;;;;;;1.90;1.33;;;;;;;;;;5026072;28;20056;-62
2024/02/07 11:18:25;;;;;;;2.35;0.80;;;;;;;;;;5027120;28;20050;-60
2024/02/07 11:20:54;;;;;;;2.42;0.90;;;;;;;;;;5027872;28;20049;-59
2024/02/07 11:23:26;;;;;;;1.25;0.88;;;;;;;;;;5029066;28;20049;-59
2024/02/07 11:25:55;;;;;;;0.80;0.80;;;;;;;;;;5028687;28;20049;-62
2024/02/07 11:28:25;;;;;;;2.38;0.65;;;;;;;;;;5027267;28;20058;-59
2024/02/07 11:30:54;;;;;;;1.92;0.70;;;;;;;;;;5026339;28;20049;-61
2024/02/07 11:33:23;;;;;;;1.45;0.70;;;;;;;;;;5028696;28;20056;-59
2024/02/07 11:35:52;;;;;;;1.42;0.93;;;;;;;;;;5031652;28;20188;-59
2024/02/07 11:38:20;;;;;;;1.48;0.63;;;;;;;;;;5031879;28;20094;-60
2024/02/07 11:40:49;;;;;;;1.73;0.88;;;;;;;;;;5030778;28;20103;-61
2024/02/07 11:43:20;;;;;;;1.85;0.90;;;;;;;;;;5027461;28;20077;-60
2024/02/07 11:45:51;;;;;;;2.28;0.80;;;;;;;;;;5025082;28;20045;-59
2024/02/07 11:48:20;;;;;;;0.98;0.80;;;;;;;;;;5029790;28;20053;-60
2024/02/07 11:50:49;;;;;;;1.33;0.80;;;;;;;;;;5032016;28;20092;-59
2024/02/07 11:53:22;;;;;;;1.88;1.00;;;;;;;;;;5023103;28;20045;-61
2024/02/07 11:55:50;;;;;;;2.70;0.88;;;;;;;;;;5031197;28;20046;-60
2024/02/07 11:58:20;;;;;;;1.92;0.70;;;;;;;;;;5025912;28;20041;-59
2024/02/07 12:00:50;;;;;;;1.10;0.90;;;;;;;;;;5028833;28;20045;-58
2024/02/07 12:03:19;;;;;;;1.75;0.95;;;;;;;;;;5031172;28;20486;-61
2024/02/07 12:05:48;;;;;;;0.85;0.63;;;;;;;;;;5028962;28;20053;-62
2024/02/07 12:08:18;;;;;;;1.45;0.90;;;;;;;;;;5030053;28;20049;-59
2024/02/07 12:10:46;;;;;;;2.60;0.90;;;;;;;;;;5031351;28;20518;-59
2024/02/07 12:13:15;;;;;;;2.45;1.80;;;;;;;;;;5031314;28;20041;-58
2024/02/07 12:15:43;;;;;;;1.23;0.80;;;;;;;;;;5025793;28;20133;-61
2024/02/07 12:18:12;;;;;;;1.63;1.00;;;;;;;;;;5025322;28;20463;-59
2024/02/07 12:20:41;;;;;;;3.33;0.80;;;;;;;;;;5029663;28;20392;-63
2024/02/07 12:23:10;;;;;;;2.92;0.85;;;;;;;;;;5031732;28;20067;-61
2024/02/07 12:25:38;;;;;;;2.08;0.90;;;;;;;;;;5028508;28;20057;-59
2024/02/07 12:28:10;;;;;;;1.73;0.90;;;;;;;;;;5030029;28;20327;-60
2024/02/07 12:30:39;;;;;;;2.17;0.98;;;;;;;;;;5025252;28;20057;-61
2024/02/07 12:33:07;;;;;;;2.55;1.00;;;;;;;;;;5026824;28;20095;-60
2024/02/07 12:35:49;;;;;;;2.65;0.65;;;;;;;;;;5025121;28;20487;-59
2024/02/07 12:38:18;;;;;;;1.23;0.70;;;;;;;;;;5024209;28;20045;-60
2024/02/07 12:40:47;;;;;;;2.10;0.90;;;;;;;;;;5027293;28;20060;-60
2024/02/07 12:43:17;;;;;;;1.50;0.65;;;;;;;;;;5026928;28;20072;-59
2024/02/07 12:45:49;;;;;;;3.83;0.98;;;;;;;;;;5026161;28;20837;-60
2024/02/07 12:48:18;;;;;;;1.52;0.68;;;;;;;;;;5033296;28;20502;-61
2024/02/07 12:50:47;;;;;;;2.22;1.10;;;;;;;;;;5023061;28;20056;-62
2024/02/07 12:53:18;;;;;;;0.90;0.68;;;;;;;;;;5029372;28;20699;-62
2024/02/07 12:55:48;;;;;;;3.03;0.90;;;;;;;;;;5027644;28;20525;-60
2024/02/07 12:58:16;;;;;;;1.95;0.73;;;;;;;;;;5022699;28;20091;-59
2024/02/07 13:00:45;;;;;;;1.65;1.02;;;;;;;;;;5026328;28;20474;-64
2024/02/07 13:03:14;;;;;;;1.05;0.70;;;;;;;;;;5028901;28;20080;-64
2024/02/07 13:05:42;;;;;;;1.70;0.70;;;;;;;;;;5028836;28;20061;-66
2024/02/07 13:08:11;;;;;;;1.00;0.70;;;;;;;;;;5025942;28;20053;-61
2024/02/07 13:10:42;;;;;;;2.70;1.00;;;;;;;;;;5028014;28;20129;-61
2024/02/07 13:13:11;;;;;;;2.30;0.93;;;;;;;;;;5026676;28;20077;-61
2024/02/07 13:15:40;;;;;;;1.05;0.70;;;;;;;;;;5028551;28;20053;-59
2024/02/07 13:18:08;;;;;;;2.25;0.80;;;;;;;;;;5028144;28;20080;-65
2024/02/07 13:20:37;;;;;;;1.05;0.80;;;;;;;;;;5022137;28;20049;-61
2024/02/07 13:23:05;;;;;;;3.13;0.90;;;;;;;;;;5020112;28;20075;-62
2024/02/07 13:25:34;;;;;;;1.90;1.35;;;;;;;;;;5023537;28;20064;-60
2024/02/07 13:28:07;;;;;;;3.65;0.80;;;;;;;;;;5026300;28;20111;-62
2024/02/07 13:30:36;;;;;;;0.88;0.77;;;;;;;;;;5018973;28;20481;-63
2024/02/07 13:33:06;;;;;;;1.65;0.70;;;;;;;;;;5025850;28;20072;-60
2024/02/07 13:35:34;;;;;;;3.45;1.17;;;;;;;;;;5021748;28;20454;-60
2024/02/07 13:38:03;;;;;;;3.28;0.85;;;;;;;;;;5025549;28;20446;-60
2024/02/07 13:40:31;;;;;;;3.53;0.80;;;;;;;;;;5024497;28;20132;-66
2024/02/07 13:43:00;;;;;;;1.48;0.70;;;;;;;;;;5024723;28;20049;-60
2024/02/07 13:45:30;;;;;;;1.75;0.80;;;;;;;;;;5026279;28;20057;-62
2024/02/07 13:47:58;;;;;;;1.70;0.70;;;;;;;;;;5024258;28;20498;-61
2024/02/07 13:50:26;;;;;;;1.48;0.98;;;;;;;;;;5022585;28;20097;-60
2024/02/07 13:52:55;;;;;;;1.20;0.82;;;;;;;;;;5023851;28;20567;-60
2024/02/07 13:55:24;;;;;;;3.60;0.93;;;;;;;;;;5026107;28;20103;-62
2024/02/07 13:57:52;;;;;;;1.27;1.00;;;;;;;;;;5025849;28;20077;-61
2024/02/07 14:00:21;;;;;;;2.25;0.82;;;;;;;;;;5026843;28;20057;-60
2024/02/07 14:02:51;;;;;;;2.90;1.00;;;;;;;;;;5020439;28;20064;-65
2024/02/07 14:05:19;;;;;;;2.30;0.90;;;;;;;;;;5023194;28;20054;-60
2024/02/07 14:07:48;;;;;;;1.58;0.98;;;;;;;;;;5024010;28;20485;-62
2024/02/07 14:10:16;;;;;;;1.35;0.90;;;;;;;;;;5022065;28;20486;-60
2024/02/07 14:12:45;;;;;;;1.50;0.80;;;;;;;;;;5020212;28;20051;-63
2024/02/07 14:15:13;;;;;;;1.85;0.93;;;;;;;;;;4992336;28;21307;-66
2024/02/07 14:17:42;;;;;;;1.85;0.82;;;;;;;;;;5008352;28;20073;-60
2024/02/07 14:20:13;;;;;;;2.15;1.00;;;;;;;;;;5024251;28;20088;-60
2024/02/07 14:22:42;;;;;;;1.50;0.88;;;;;;;;;;5020775;28;20053;-60
2024/02/07 14:25:13;;;;;;;5.22;1.63;;;;;;;;;;5024905;28;20504;-60
2024/02/07 14:27:42;;;;;;;2.55;1.10;;;;;;;;;;5018683;28;20152;-61
2024/02/07 14:30:10;;;;;;;0.77;0.70;;;;;;;;;;5028881;28;20050;-61
2024/02/07 14:32:39;;;;;;;1.38;1.10;;;;;;;;;;5021560;28;20049;-60
2024/02/07 14:35:08;;;;;;;2.25;0.80;;;;;;;;;;5026644;28;20053;-61
2024/02/07 14:37:39;;;;;;;2.30;1.10;;;;;;;;;;5023604;28;20546;-60
2024/02/07 14:40:08;;;;;;;1.08;0.80;;;;;;;;;;5025829;28;20712;-63
2024/02/07 14:42:37;;;;;;;1.10;0.70;;;;;;;;;;5021379;28;20041;-60
2024/02/07 14:45:08;;;;;;;2.78;1.17;;;;;;;;;;5038491;28;20052;-62
2024/02/07 14:47:37;;;;;;;1.73;0.73;;;;;;;;;;5021598;28;20050;-62
2024/02/07 14:50:05;;;;;;;0.90;0.65;;;;;;;;;;5031362;28;20137;-59
2024/02/07 14:52:34;;;;;;;1.80;0.95;;;;;;;;;;5026390;28;20478;-59
2024/02/07 14:55:04;;;;;;;1.73;0.90;;;;;;;;;;5026426;28;20064;-62
2024/02/07 14:57:32;;;;;;;2.97;1.00;;;;;;;;;;5024661;28;20061;-62
2024/02/07 15:00:02;;;;;;;1.00;0.90;;;;;;;;;;5024826;28;20221;-60
2024/02/07 15:02:31;;;;;;;3.30;0.90;;;;;;;;;;5025002;28;20080;-62
2024/02/07 15:04:59;;;;;;;2.97;1.00;;;;;;;;;;5022611;28;20122;-59
2024/02/07 15:07:28;;;;;;;2.60;0.95;;;;;;;;;;5025840;28;20162;-64
2024/02/07 15:09:56;;;;;;;2.67;1.30;;;;;;;;;;5030793;28;20274;-60
2024/02/07 15:12:26;;;;;;;2.40;0.90;;;;;;;;;;5029307;28;20584;-60
2024/02/07 15:14:54;;;;;;;3.00;0.93;;;;;;;;;;5029477;28;20568;-61
2024/02/07 15:17:23;;;;;;;1.58;0.80;;;;;;;;;;5031216;28;20129;-61
2024/02/07 15:19:51;;;;;;;1.67;0.98;;;;;;;;;;5031373;28;20140;-60
2024/02/07 15:22:19;;;;;;;1.10;0.98;;;;;;;;;;5028411;28;20136;-60
2024/02/07 15:24:48;;;;;;;1.75;0.90;;;;;;;;;;5031759;28;20077;-61
2024/02/07 15:27:16;;;;;;;1.20;0.90;;;;;;;;;;5032029;28;20041;-61
2024/02/07 15:29:46;;;;;;;1.40;0.90;;;;;;;;;;5030492;28;20518;-60
2024/02/07 15:32:14;;;;;;;1.50;0.90;;;;;;;;;;5025784;28;20045;-61
2024/02/07 15:34:43;;;;;;;2.85;1.10;;;;;;;;;;5022662;28;20376;-61
2024/02/07 15:37:12;;;;;;;1.90;0.98;;;;;;;;;;5027189;28;20582;-62
2024/02/07 15:39:40;;;;;;;1.48;0.85;;;;;;;;;;5029289;28;20526;-58
2024/02/07 15:42:10;;;;;;;1.38;0.82;;;;;;;;;;5030515;28;20053;-60
2024/02/07 15:44:39;;;;;;;3.72;1.20;;;;;;;;;;5029327;28;20057;-62
2024/02/07 15:47:12;;;;;;;2.03;0.90;;;;;;;;;;5029585;28;20049;-65
2024/02/07 15:49:40;;;;;;;1.45;1.00;;;;;;;;;;5028808;28;20044;-63
2024/02/07 15:52:09;;;;;;;3.05;1.08;;;;;;;;;;5029474;28;20053;-61
2024/02/07 15:54:37;;;;;;;1.02;0.80;;;;;;;;;;5023349;28;20137;-60
2024/02/07 15:57:06;;;;;;;1.25;1.00;;;;;;;;;;5022184;28;20129;-60
2024/02/07 15:59:34;;;;;;;0.88;0.80;;;;;;;;;;5015156;28;20207;-66
2024/02/07 16:02:02;;;;;;;1.00;0.90;;;;;;;;;;5019920;28;20569;-62